Hovedside
METAR-TAF:

METAR-TAF

Lufthavner :

Bordj Badji Mokhtar, Algerie

breddegrad: 21-22-30N, lengdegrad: 000-55-26E, høyde over havet: 396 m

Gjeldene værobservasjon

Denne rapporten ble laget for 1 time og 6 minutter siden, klokken 14:00 UTC
Vind 16 kt fra Øst
Temperatur 44°C
Trykk 1009 hPa
Sikt: 4000 m
lav sanddrev,

METAR: DATM 181400Z 08016KT 4000 DRSA NSC 44/// Q1009

Tid: 16:06 (15:06 UTC)

Varsel

Denne rapporten ble laget for 1 time og 6 minutter siden, klokken 14:00 UTC
Varsel gyldig fra 18. klokken 15 UTC til 18. klokken 24 UTC
Vind 20 kt fra Øst-sørøst
Sikt: 2000 m
lav sanddrev
Sannsynlighet 30%
fra 18. klokken 15 UTC til 18. klokken 18 UTC
Vind 20 kt fra Øst-sørøst med vindkast opp mot 35 kt
Sikt: 0800 m
Få skyer i en høyde av 4000 ft, Bygeskyer.
sanddrev
Blir
fra 18. klokken 19 UTC til 18. klokken 21 UTC
Vind 10 kt fra Øst-sørøst
Sikt: 6000 m

TAF: DATM 181400Z 1815/1824 12020KT 2000 DRSA NSC PROB30 1815/1818 12020G35KT 0800 BLSA FEW040CB BECMG 1819/1821 12010KT 6000 NSW

Værobservasjoner og værvarsel for over 4000 flyplasser (METAR- og TAF-rapporter).

Tilgjengelige stasjoner er representert av de røde og gule prikkene på kartet.

Hold musepekeren over prikken for å se navnet på stasjonen.

Klikk så for å se værobservasjoner og -varsler.

For å forandre kartet kan du klikke på den grønne knappen med svart kryss for å zoome inn, på den grønne knappen med strek for å zoome ut, eller på de grønne pilene for å se tilstøtende kart.


METAR-TAF: